Time;durP1;ratioP1;P1;durP2;ratioP2;P2;SDS_P1;SDS_P2;PMS_P1;PMS_P2;Temp;Humidity;BMP_temperature;BMP_pressure;BME280_temperature;BME280_humidity;BME280_pressure;Samples;Min_cycle;Max_cycle;Signal;HPM_P1;HPM_P2
2022/03/07 00:00:08;;;;;;;12.30;10.50;;;;;;101000.30;;;;107224;1274;64732;-30
2022/03/07 00:02:55;;;;;;;12.40;9.80;;;;;;100995.15;;;;107129;1274;64834;-31
2022/03/07 00:05:22;;;;;;;12.60;9.40;;;;;;100998.77;;;;107148;1277;64854;-31
2022/03/07 00:07:49;;;;;;;12.50;10.00;;;;;;100997.44;;;;107228;1274;66480;-30
2022/03/07 00:10:17;;;;;;;12.80;9.50;;;;;;100993.23;;;;107134;1274;64811;-30
2022/03/07 00:12:45;;;;;;;12.10;10.30;;;;;;100991.80;;;;107234;1274;64769;-35
2022/03/07 00:15:12;;;;;;;11.90;9.10;;;;;;100993.63;;;;107221;1274;64779;-36
2022/03/07 00:17:39;;;;;;;11.60;9.70;;;;;;100983.32;;;;107252;1274;64702;-31
2022/03/07 00:20:08;;;;;;;12.80;9.40;;;;;;100979.34;;;;107123;1272;66544;-31
2022/03/07 00:22:35;;;;;;;11.20;9.60;;;;;;100983.23;;;;107173;1273;64775;-30
2022/03/07 00:25:03;;;;;;;12.40;9.70;;;;;;100987.70;;;;107221;1274;64882;-30
2022/03/07 00:27:31;;;;;;;12.60;9.60;;;;;;100993.82;;;;107254;1274;64773;-33
2022/03/07 00:29:59;;;;;;;12.50;9.40;;;;;;100996.65;;;;107244;1274;64758;-35
2022/03/07 00:32:26;;;;;;;10.30;8.90;;;;;;100998.48;;;;107250;1274;65002;-36
2022/03/07 00:34:54;;;;;;;10.80;9.00;;;;;;101000.77;;;;107233;1274;64860;-31
2022/03/07 00:37:21;;;;;;;10.80;8.90;;;;;;100999.34;;;;107086;1274;64776;-31
2022/03/07 00:39:49;;;;;;;11.90;9.20;;;;;;101002.89;;;;107216;1274;64887;-35
2022/03/07 00:42:16;;;;;;;11.60;9.40;;;;;;101005.27;;;;107255;1274;64870;-35
2022/03/07 00:44:43;;;;;;;11.70;9.10;;;;;;101004.57;;;;107259;1274;64872;-30
2022/03/07 00:47:10;;;;;;;10.90;8.20;;;;;;101001.15;;;;107106;1277;64872;-30
2022/03/07 00:49:38;;;;;;;11.90;8.80;;;;;;100999.08;;;;107185;1274;64868;-31
2022/03/07 00:52:06;;;;;;;10.90;9.30;;;;;;100996.13;;;;107121;1274;65110;-31
2022/03/07 00:54:33;;;;;;;11.40;9.10;;;;;;100997.83;;;;107253;1274;64741;-34
2022/03/07 00:57:00;;;;;;;10.80;9.00;;;;;;100993.02;;;;107127;1274;67594;-36
2022/03/07 00:59:28;;;;;;;10.90;8.80;;;;;;100989.39;;;;107148;1273;64776;-34
2022/03/07 01:01:55;;;;;;;10.50;8.90;;;;;;100983.86;;;;107240;1274;64834;-34
2022/03/07 01:04:23;;;;;;;10.50;8.70;;;;;;100985.69;;;;107213;1274;64741;-36
2022/03/07 01:06:50;;;;;;;10.80;8.70;;;;;;100984.04;;;;107227;1274;64715;-30
2022/03/07 01:09:17;;;;;;;11.10;8.30;;;;;;100980.24;;;;107241;1274;65982;-29
2022/03/07 01:11:44;;;;;;;10.80;9.10;;;;;;100974.40;;;;107100;1274;64847;-30
2022/03/07 01:14:12;;;;;;;12.00;8.70;;;;;;100971.45;;;;107199;1274;64712;-30
2022/03/07 01:16:39;;;;;;;11.20;8.70;;;;;;100965.04;;;;107256;1274;64754;-30
2022/03/07 01:19:06;;;;;;;12.30;8.80;;;;;;100960.05;;;;107241;1274;64911;-37
2022/03/07 01:21:33;;;;;;;11.00;8.60;;;;;;100954.68;;;;107235;1274;66177;-40
2022/03/07 01:24:00;;;;;;;11.90;9.20;;;;;;100952.71;;;;107122;1274;64936;-30
2022/03/07 01:26:27;;;;;;;11.30;8.70;;;;;;100954.58;;;;107232;1274;64859;-30
2022/03/07 01:28:55;;;;;;;10.30;8.80;;;;;;100956.77;;;;107203;1274;64770;-37
2022/03/07 01:31:22;;;;;;;10.20;8.60;;;;;;100963.84;;;;107056;1274;64929;-30
2022/03/07 01:33:50;;;;;;;10.40;8.80;;;;;;100960.36;;;;107145;1277;66522;-34
2022/03/07 01:36:17;;;;;;;10.60;8.60;;;;;;100958.46;;;;107220;1274;64782;-34
2022/03/07 01:38:45;;;;;;;10.00;8.10;;;;;;100952.48;;;;107113;1274;65181;-30
2022/03/07 01:41:12;;;;;;;10.60;8.60;;;;;;100945.92;;;;107228;1274;64910;-30
2022/03/07 01:43:39;;;;;;;11.40;8.50;;;;;;100947.66;;;;107241;1274;64756;-38
2022/03/07 01:46:08;;;;;;;11.20;8.50;;;;;;100951.71;;;;107174;1274;68350;-30
2022/03/07 01:48:37;;;;;;;11.00;8.70;;;;;;100954.73;;;;107199;1274;64833;-34
2022/03/07 01:51:07;;;;;;;11.40;8.60;;;;;;100953.47;;;;107110;1274;64933;-34
2022/03/07 01:53:34;;;;;;;11.20;8.60;;;;;;100951.68;;;;107131;1274;64625;-34
2022/03/07 01:56:01;;;;;;;10.50;8.10;;;;;;100954.23;;;;107249;1274;64734;-34
2022/03/07 01:58:28;;;;;;;10.70;8.10;;;;;;100957.46;;;;107119;1274;66470;-29
2022/03/07 02:00:55;;;;;;;9.10;8.10;;;;;;100954.06;;;;107138;1274;64783;-31
2022/03/07 02:03:23;;;;;;;10.40;8.30;;;;;;100946.46;;;;107224;1274;64896;-33
2022/03/07 02:05:50;;;;;;;10.60;8.00;;;;;;100944.56;;;;107195;1273;64834;-29
2022/03/07 02:08:18;;;;;;;8.90;7.50;;;;;;100942.67;;;;107278;1274;64776;-34
2022/03/07 02:10:45;;;;;;;10.30;8.20;;;;;;100939.69;;;;106989;1275;66494;-34
2022/03/07 02:13:16;;;;;;;10.50;7.70;;;;;;100934.11;;;;107156;1277;64830;-30
2022/03/07 02:15:43;;;;;;;10.00;7.60;;;;;;100934.64;;;;107230;1274;64754;-30
2022/03/07 02:18:10;;;;;;;9.10;7.40;;;;;;100933.75;;;;107231;1274;64847;-30
2022/03/07 02:20:39;;;;;;;9.80;7.30;;;;;;100936.86;;;;107239;1274;64706;-38
2022/03/07 02:23:06;;;;;;;10.30;7.40;;;;;;100938.11;;;;107266;1274;64719;-31
2022/03/07 02:25:33;;;;;;;9.90;8.00;;;;;;100936.70;;;;107201;1274;64720;-30
2022/03/07 02:28:00;;;;;;;10.70;7.20;;;;;;100933.20;;;;107236;1274;66100;-30
2022/03/07 02:30:27;;;;;;;10.20;7.70;;;;;;100930.65;;;;107216;1274;64905;-30
2022/03/07 02:32:55;;;;;;;10.00;7.60;;;;;;100929.92;;;;107248;1274;64600;-34
2022/03/07 02:35:22;;;;;;;10.50;7.50;;;;;;100923.98;;;;107234;1274;65222;-34
2022/03/07 02:37:49;;;;;;;9.80;6.90;;;;;;100921.39;;;;107225;1274;64875;-34
2022/03/07 02:40:19;;;;;;;10.40;7.10;;;;;;100912.05;;;;107244;1274;64739;-34
2022/03/07 02:42:46;;;;;;;9.20;7.50;;;;;;100913.25;;;;107216;1274;64882;-30
2022/03/07 02:45:13;;;;;;;10.30;6.90;;;;;;100915.59;;;;107216;1274;64798;-30
2022/03/07 02:47:40;;;;;;;10.10;7.50;;;;;;100911.11;;;;107228;1274;66814;-30
2022/03/07 02:50:08;;;;;;;9.30;7.10;;;;;;100909.20;;;;107217;1274;64885;-31
2022/03/07 02:52:35;;;;;;;9.70;7.40;;;;;;100903.30;;;;107290;1274;64867;-35
2022/03/07 02:55:03;;;;;;;9.50;7.20;;;;;;100908.83;;;;107224;1274;64766;-35
2022/03/07 02:57:30;;;;;;;10.50;7.40;;;;;;100905.12;;;;107247;1272;64831;-33
2022/03/07 02:59:57;;;;;;;10.00;6.70;;;;;;100903.20;;;;107248;1274;66215;-31
2022/03/07 03:02:28;;;;;;;9.40;6.70;;;;;;100905.05;;;;107252;1274;64873;-41
2022/03/07 03:04:55;;;;;;;9.50;6.70;;;;;;100910.29;;;;107218;1274;64815;-35
2022/03/07 03:07:22;;;;;;;8.50;6.70;;;;;;100906.77;;;;107218;1274;64849;-34
2022/03/07 03:09:49;;;;;;;8.40;6.10;;;;;;100906.60;;;;107209;1274;64894;-35
2022/03/07 03:12:18;;;;;;;8.30;6.40;;;;;;100909.98;;;;107233;1274;66462;-35
2022/03/07 03:14:46;;;;;;;9.10;6.60;;;;;;100908.08;;;;107220;1274;64752;-36
2022/03/07 03:17:13;;;;;;;8.20;6.20;;;;;;100904.45;;;;107239;1275;64875;-35
2022/03/07 03:19:41;;;;;;;8.50;6.10;;;;;;100900.70;;;;107214;1277;64867;-35
2022/03/07 03:22:08;;;;;;;8.80;6.20;;;;;;100908.72;;;;107233;1274;64879;-35
2022/03/07 03:24:35;;;;;;;8.50;6.30;;;;;;100905.70;;;;107134;1277;69572;-35
2022/03/07 03:27:03;;;;;;;8.60;6.40;;;;;;100905.98;;;;107057;1274;64885;-35
2022/03/07 03:29:31;;;;;;;8.80;6.20;;;;;;100907.23;;;;107257;1274;64958;-31
2022/03/07 03:31:58;;;;;;;8.30;6.30;;;;;;100911.79;;;;107225;1275;64900;-32
2022/03/07 03:34:25;;;;;;;7.90;5.70;;;;;;100910.91;;;;107262;1275;64776;-31
2022/03/07 03:36:53;;;;;;;8.60;6.30;;;;;;100910.96;;;;107225;1275;65700;-31
2022/03/07 03:39:20;;;;;;;8.30;5.90;;;;;;100908.11;;;;107093;1274;64850;-35
2022/03/07 03:41:47;;;;;;;8.00;5.80;;;;;;100900.53;;;;107111;1275;64791;-35
2022/03/07 03:44:15;;;;;;;8.10;6.20;;;;;;100901.58;;;;107231;1275;64891;-31
2022/03/07 03:46:42;;;;;;;7.40;5.70;;;;;;100897.33;;;;107264;1274;64754;-31
2022/03/07 03:49:09;;;;;;;7.50;5.40;;;;;;100896.77;;;;107153;1277;64914;-35
2022/03/07 03:51:36;;;;;;;8.00;5.70;;;;;;100901.34;;;;107216;1274;64877;-35
2022/03/07 03:54:04;;;;;;;7.70;5.30;;;;;;100896.78;;;;107211;1274;64837;-31
2022/03/07 03:56:31;;;;;;;8.60;5.70;;;;;;100895.23;;;;107227;1274;64739;-30
2022/03/07 03:58:59;;;;;;;8.00;5.50;;;;;;100894.40;;;;107216;1274;64599;-30
2022/03/07 04:01:26;;;;;;;7.70;5.40;;;;;;100893.45;;;;107241;1274;65851;-30
2022/03/07 04:03:53;;;;;;;8.30;5.50;;;;;;100889.36;;;;107191;1274;63594;-34
2022/03/07 04:06:20;;;;;;;7.00;5.50;;;;;;100890.48;;;;107233;1274;64842;-34
2022/03/07 04:09:18;;;;;;;7.70;5.60;;;;;;100890.30;;;;107155;1274;65117;-34
2022/03/07 04:11:47;;;;;;;8.00;5.00;;;;;;100890.80;;;;107218;1274;64845;-34
2022/03/07 04:14:14;;;;;;;7.80;5.30;;;;;;100895.46;;;;107252;1274;64789;-35
2022/03/07 04:16:42;;;;;;;7.80;4.90;;;;;;100897.09;;;;107249;1274;64994;-34
2022/03/07 04:19:11;;;;;;;8.00;5.30;;;;;;100895.33;;;;107162;1274;64941;-31
2022/03/07 04:21:40;;;;;;;7.90;5.70;;;;;;100894.77;;;;107214;1274;64782;-30
2022/03/07 04:24:09;;;;;;;7.40;5.20;;;;;;100895.66;;;;107162;1275;62324;-30
2022/03/07 04:26:36;;;;;;;8.40;5.30;;;;;;100894.11;;;;107090;1274;226427;-30
2022/03/07 04:29:07;;;;;;;7.10;5.50;;;;;;100894.16;;;;107236;1275;64785;-35
2022/03/07 04:31:38;;;;;;;7.60;4.90;;;;;;100894.02;;;;107208;1274;64977;-35
2022/03/07 04:34:06;;;;;;;7.20;4.90;;;;;;100892.45;;;;107236;1274;64949;-30
2022/03/07 04:36:36;;;;;;;7.20;5.40;;;;;;100895.25;;;;107182;1277;64862;-30
2022/03/07 04:39:05;;;;;;;8.00;5.00;;;;;;100890.59;;;;107156;1275;66229;-34
2022/03/07 04:41:33;;;;;;;7.20;4.90;;;;;;100889.50;;;;107183;1274;64760;-34
2022/03/07 04:44:01;;;;;;;7.20;4.70;;;;;;100890.07;;;;107279;1274;64754;-30
2022/03/07 04:46:29;;;;;;;7.20;5.00;;;;;;100889.34;;;;107219;1275;64765;-30
2022/03/07 04:48:56;;;;;;;7.20;5.00;;;;;;100893.04;;;;107117;1277;64874;-34
2022/03/07 04:51:23;;;;;;;8.10;4.80;;;;;;100891.13;;;;107260;1274;64871;-34
2022/03/07 04:53:50;;;;;;;7.60;4.90;;;;;;100894.58;;;;107238;1275;63520;-34
2022/03/07 04:56:18;;;;;;;7.60;4.90;;;;;;100891.36;;;;107108;1275;64866;-34
2022/03/07 04:58:45;;;;;;;6.40;4.40;;;;;;100889.30;;;;107187;1274;64885;-30
2022/03/07 05:01:14;;;;;;;7.40;4.70;;;;;;100888.58;;;;107203;1274;64758;-31
2022/03/07 05:03:41;;;;;;;7.10;4.80;;;;;;100884.63;;;;107146;1275;66571;-34
2022/03/07 05:06:09;;;;;;;7.50;4.90;;;;;;100881.20;;;;107255;1274;64849;-34
2022/03/07 05:08:39;;;;;;;6.80;4.50;;;;;;100885.24;;;;107136;1275;64910;-30
2022/03/07 05:11:06;;;;;;;6.90;4.60;;;;;;100883.77;;;;107212;1274;64866;-30
2022/03/07 05:13:34;;;;;;;6.90;4.50;;;;;;100876.67;;;;107240;1274;63517;-34
2022/03/07 05:16:01;;;;;;;10.80;5.00;;;;;;100879.53;;;;107236;1274;66124;-35
2022/03/07 05:18:28;;;;;;;7.40;4.50;;;;;;100879.85;;;;107236;1274;64816;-31
2022/03/07 05:20:55;;;;;;;6.80;4.50;;;;;;100880.52;;;;107236;1274;64872;-30
2022/03/07 05:23:23;;;;;;;7.70;4.50;;;;;;100874.05;;;;107186;1274;64855;-35
2022/03/07 05:25:50;;;;;;;6.50;4.60;;;;;;100869.88;;;;107231;1274;64888;-35
2022/03/07 05:28:17;;;;;;;6.90;4.40;;;;;;100865.34;;;;107221;1274;66200;-30
2022/03/07 05:30:44;;;;;;;6.80;4.60;;;;;;100865.41;;;;107244;1274;65021;-31
2022/03/07 05:33:11;;;;;;;6.50;4.50;;;;;;100865.27;;;;107213;1274;64761;-31
2022/03/07 05:35:38;;;;;;;7.10;4.50;;;;;;100864.86;;;;107208;1274;64988;-31
2022/03/07 05:38:08;;;;;;;6.60;4.50;;;;;;100863.61;;;;107226;1274;64831;-34
2022/03/07 05:40:35;;;;;;;6.90;4.60;;;;;;100863.54;;;;107240;1274;65864;-34
2022/03/07 05:43:02;;;;;;;7.00;4.70;;;;;;100864.27;;;;107206;1274;64754;-34
2022/03/07 05:45:30;;;;;;;7.50;4.80;;;;;;100866.98;;;;107216;1275;65016;-35
2022/03/07 05:47:57;;;;;;;6.70;4.70;;;;;;100865.41;;;;107233;1274;64784;-34
2022/03/07 05:50:25;;;;;;;7.50;5.30;;;;;;100870.41;;;;107236;1274;64757;-34
2022/03/07 05:52:52;;;;;;;7.40;4.60;;;;;;100866.14;;;;107165;1274;64895;-34
2022/03/07 05:55:19;;;;;;;7.50;4.40;;;;;;100865.30;;;;107211;1274;64754;-34
2022/03/07 05:57:46;;;;;;;7.00;4.40;;;;;;100865.54;;;;107227;1274;64770;-31
2022/03/07 06:00:15;;;;;;;7.40;4.70;;;;;;100866.05;;;;107221;1274;64779;-31
2022/03/07 06:02:42;;;;;;;7.90;5.00;;;;;;100868.06;;;;107278;1274;64731;-30
2022/03/07 06:05:10;;;;;;;6.70;4.80;;;;;;100864.71;;;;107141;1274;65029;-30
2022/03/07 06:07:37;;;;;;;8.40;5.10;;;;;;100861.70;;;;107247;1274;64776;-34
2022/03/07 06:10:06;;;;;;;7.40;4.80;;;;;;100859.23;;;;107236;1273;64832;-34
2022/03/07 06:12:33;;;;;;;7.60;4.70;;;;;;100860.09;;;;107167;1274;65938;-31
2022/03/07 06:15:03;;;;;;;8.90;5.10;;;;;;100865.08;;;;107251;1274;64837;-30
2022/03/07 06:17:31;;;;;;;8.80;5.20;;;;;;100863.58;;;;107252;1274;66211;-33
2022/03/07 06:19:59;;;;;;;8.40;5.10;;;;;;100864.98;;;;107235;1274;64919;-35
2022/03/07 06:22:26;;;;;;;7.80;5.40;;;;;;100865.42;;;;107233;1274;64826;-35
2022/03/07 06:24:54;;;;;;;8.50;5.30;;;;;;100870.16;;;;107122;1274;65140;-34
2022/03/07 06:27:22;;;;;;;8.50;5.60;;;;;;100868.72;;;;107279;1274;64757;-34
2022/03/07 06:29:50;;;;;;;8.40;5.10;;;;;;100866.55;;;;107240;1274;65173;-31
2022/03/07 06:32:20;;;;;;;9.60;6.00;;;;;;100864.48;;;;107233;1274;64766;-30
2022/03/07 06:34:47;;;;;;;8.70;5.80;;;;;;100869.47;;;;107202;1274;64933;-35
2022/03/07 06:37:14;;;;;;;8.90;5.80;;;;;;100869.81;;;;107203;1274;64753;-34
2022/03/07 06:39:41;;;;;;;8.90;5.30;;;;;;100873.75;;;;107229;1274;64897;-35
2022/03/07 06:42:10;;;;;;;9.20;5.70;;;;;;100877.98;;;;107028;1274;66898;-35
2022/03/07 06:44:39;;;;;;;9.50;5.40;;;;;;100874.10;;;;107253;1274;64900;-33
2022/03/07 06:47:08;;;;;;;8.10;5.70;;;;;;100870.71;;;;107160;1274;64952;-35
2022/03/07 06:49:36;;;;;;;9.40;6.00;;;;;;100873.76;;;;107100;1274;64955;-31
2022/03/07 06:52:04;;;;;;;9.00;5.50;;;;;;100874.73;;;;107171;1274;64858;-30
2022/03/07 06:54:31;;;;;;;8.00;4.90;;;;;;100873.86;;;;107198;1274;65197;-31
2022/03/07 06:56:58;;;;;;;7.70;5.40;;;;;;100876.69;;;;107179;1273;64871;-31
2022/03/07 06:59:25;;;;;;;8.00;5.70;;;;;;100881.06;;;;107099;1277;64708;-34
2022/03/07 07:01:52;;;;;;;8.30;5.10;;;;;;100881.57;;;;107058;1275;65409;-34
2022/03/07 07:04:20;;;;;;;8.30;5.40;;;;;;100886.34;;;;107057;1274;64841;-33
2022/03/07 07:06:47;;;;;;;9.40;5.30;;;;;;100883.08;;;;107208;1273;64779;-34
2022/03/07 07:09:14;;;;;;;7.30;5.10;;;;;;100885.45;;;;107143;1274;64878;-28
2022/03/07 07:11:41;;;;;;;8.60;5.30;;;;;;100883.64;;;;107175;1274;64875;-30
2022/03/07 07:14:08;;;;;;;7.90;5.10;;;;;;100882.79;;;;107185;1273;64901;-32
2022/03/07 07:16:36;;;;;;;8.80;5.30;;;;;;100880.27;;;;107181;1273;64859;-33
2022/03/07 07:19:03;;;;;;;8.10;5.20;;;;;;100882.90;;;;107169;1273;66137;-31
2022/03/07 07:21:30;;;;;;;8.30;5.30;;;;;;100883.48;;;;106961;1278;64765;-34
2022/03/07 07:23:58;;;;;;;11.50;5.60;;;;;;100882.29;;;;107101;1274;65821;-33
2022/03/07 07:26:26;;;;;;;8.00;5.30;;;;;;100882.23;;;;107080;1277;64822;-33
2022/03/07 07:28:54;;;;;;;7.70;4.60;;;;;;100879.63;;;;107163;1273;64868;-31
2022/03/07 07:31:21;;;;;;;8.00;4.60;;;;;;100881.50;;;;107190;1273;65984;-32
2022/03/07 07:33:48;;;;;;;8.60;5.20;;;;;;100876.98;;;;107150;1273;64875;-31
2022/03/07 07:36:15;;;;;;;8.40;5.00;;;;;;100876.53;;;;107092;1277;64809;-32
2022/03/07 07:38:42;;;;;;;7.60;5.20;;;;;;100877.90;;;;107064;1274;64944;-31
2022/03/07 07:41:10;;;;;;;9.20;5.10;;;;;;100880.02;;;;107194;1274;64786;-31
2022/03/07 07:43:38;;;;;;;8.60;4.90;;;;;;100881.24;;;;107190;1273;66046;-31
2022/03/07 07:46:05;;;;;;;9.20;5.00;;;;;;100880.59;;;;107067;1275;64867;-31
2022/03/07 07:48:41;;;;;;;8.90;5.00;;;;;;100878.20;;;;107171;1273;65724;-33
2022/03/07 07:51:08;;;;;;;7.80;5.00;;;;;;100876.65;;;;107160;1273;64852;-32
2022/03/07 07:53:36;;;;;;;7.70;5.00;;;;;;100879.61;;;;107182;1273;64855;-32
2022/03/07 07:56:04;;;;;;;9.50;5.30;;;;;;100882.50;;;;107183;1274;64940;-31
2022/03/07 07:58:32;;;;;;;8.70;4.90;;;;;;100882.55;;;;107139;1274;64814;-31
2022/03/07 08:00:59;;;;;;;8.40;4.90;;;;;;100881.79;;;;107133;1276;64755;-33
2022/03/07 08:03:27;;;;;;;8.20;4.80;;;;;;100876.73;;;;107111;1274;64747;-32
2022/03/07 08:05:54;;;;;;;8.00;4.70;;;;;;100880.11;;;;107170;1273;64754;-33
2022/03/07 08:08:21;;;;;;;7.60;4.80;;;;;;100876.25;;;;107194;1273;64796;-32
2022/03/07 08:10:49;;;;;;;7.00;4.30;;;;;;100877.35;;;;107254;1273;64952;-32
2022/03/07 08:13:16;;;;;;;7.70;4.90;;;;;;100877.48;;;;107197;1274;64816;-33
2022/03/07 08:15:44;;;;;;;7.50;4.70;;;;;;100876.38;;;;107138;1274;64746;-33
2022/03/07 08:18:11;;;;;;;8.40;4.60;;;;;;100872.27;;;;107192;1273;63470;-33
2022/03/07 08:20:39;;;;;;;6.50;4.10;;;;;;100875.10;;;;107199;1273;64782;-32
2022/03/07 08:23:07;;;;;;;6.70;4.30;;;;;;100874.35;;;;107183;1273;64841;-33
2022/03/07 08:25:34;;;;;;;7.60;4.70;;;;;;100874.77;;;;107165;1274;64792;-33
2022/03/07 08:28:02;;;;;;;7.20;4.60;;;;;;100870.33;;;;107148;1274;64864;-32
2022/03/07 08:30:30;;;;;;;7.50;4.50;;;;;;100870.70;;;;107185;1273;64885;-33
2022/03/07 08:32:57;;;;;;;6.80;4.30;;;;;;100865.84;;;;107156;1274;66624;-32
2022/03/07 08:35:25;;;;;;;7.50;4.10;;;;;;100868.73;;;;107141;1273;64814;-31
2022/03/07 08:37:53;;;;;;;7.30;4.40;;;;;;100869.56;;;;107165;1273;64779;-33
2022/03/07 08:40:23;;;;;;;7.10;4.30;;;;;;100870.16;;;;107195;1274;64779;-33
2022/03/07 08:42:51;;;;;;;6.30;3.90;;;;;;100868.73;;;;107089;1274;64649;-33
2022/03/07 08:45:25;;;;;;;6.10;3.70;;;;;;100865.65;;;;107211;1274;65319;-31
2022/03/07 08:47:53;;;;;;;8.00;4.00;;;;;;100864.67;;;;107171;1273;65176;-30
2022/03/07 08:50:20;;;;;;;7.40;4.60;;;;;;100860.30;;;;107144;1274;64969;-31
2022/03/07 08:52:47;;;;;;;6.90;4.20;;;;;;100857.35;;;;107205;1274;64850;-32
2022/03/07 08:55:15;;;;;;;6.70;4.00;;;;;;100857.34;;;;107242;1273;64861;-37
2022/03/07 08:57:42;;;;;;;6.50;3.80;;;;;;100860.73;;;;107263;1274;65724;-31
2022/03/07 09:00:12;;;;;;;6.00;3.30;;;;;;100859.30;;;;107221;1274;64746;-32
2022/03/07 09:02:39;;;;;;;6.80;3.50;;;;;;100855.40;;;;107248;1274;64768;-32
2022/03/07 09:05:08;;;;;;;6.30;3.80;;;;;;100856.14;;;;107193;1274;64846;-32
2022/03/07 09:07:35;;;;;;;6.60;3.60;;;;;;100852.54;;;;107257;1274;64630;-34
2022/03/07 09:10:03;;;;;;;6.40;3.40;;;;;;100848.74;;;;107218;1274;66506;-33
2022/03/07 09:12:31;;;;;;;6.20;3.60;;;;;;100848.34;;;;107239;1274;64769;-32
2022/03/07 09:15:04;;;;;;;6.40;3.40;;;;;;100846.64;;;;107207;1273;64776;-32
2022/03/07 09:17:31;;;;;;;6.70;3.30;;;;;;100841.69;;;;107211;1274;64772;-33
2022/03/07 09:19:59;;;;;;;6.00;3.70;;;;;;100843.20;;;;107227;1274;64780;-33
2022/03/07 09:22:28;;;;;;;7.70;3.50;;;;;;100844.31;;;;107223;1274;66652;-35
2022/03/07 09:24:56;;;;;;;6.30;3.50;;;;;;100841.04;;;;107194;1274;65617;-38
2022/03/07 09:27:23;;;;;;;6.10;3.90;;;;;;100836.48;;;;107155;1273;66063;-33
2022/03/07 09:29:51;;;;;;;6.30;3.50;;;;;;100839.24;;;;107208;1274;64734;-40
2022/03/07 09:32:19;;;;;;;7.00;3.60;;;;;;100835.54;;;;107257;1274;64759;-32
2022/03/07 09:34:46;;;;;;;5.60;3.30;;;;;;100835.34;;;;107236;1274;66894;-32
2022/03/07 09:37:14;;;;;;;6.60;3.90;;;;;;100833.45;;;;107118;1274;64879;-32
2022/03/07 09:39:41;;;;;;;6.80;3.50;;;;;;100835.41;;;;107207;1274;64754;-32
2022/03/07 09:42:09;;;;;;;6.10;3.50;;;;;;100836.18;;;;107115;1273;64752;-31
2022/03/07 09:44:36;;;;;;;5.90;3.40;;;;;;100837.23;;;;107226;1274;64883;-32
2022/03/07 09:47:05;;;;;;;6.20;3.40;;;;;;100834.92;;;;107136;1274;66429;-32
2022/03/07 09:49:32;;;;;;;6.50;3.60;;;;;;100831.65;;;;107260;1274;64975;-33
2022/03/07 09:52:00;;;;;;;6.20;3.30;;;;;;100834.68;;;;107215;1274;64867;-33
2022/03/07 09:54:28;;;;;;;6.50;3.10;;;;;;100834.52;;;;107214;1274;64756;-32
2022/03/07 09:56:55;;;;;;;5.90;3.30;;;;;;100838.27;;;;107152;1274;65521;-32
2022/03/07 09:59:24;;;;;;;6.00;3.20;;;;;;100838.23;;;;107233;1274;67149;-29
2022/03/07 10:02:00;;;;;;;6.90;3.70;;;;;;100835.30;;;;107147;1274;64805;-30
2022/03/07 10:04:30;;;;;;;4.80;3.00;;;;;;100833.09;;;;107239;1274;64776;-33
2022/03/07 10:07:01;;;;;;;6.40;3.40;;;;;;100838.28;;;;107204;1274;64760;-33
2022/03/07 10:09:29;;;;;;;5.70;3.30;;;;;;100834.17;;;;107255;1273;64737;-32
2022/03/07 10:12:03;;;;;;;6.20;3.40;;;;;;100836.98;;;;107227;1274;66482;-35
2022/03/07 10:14:44;;;;;;;6.40;3.50;;;;;;100841.56;;;;107204;1274;64875;-31
2022/03/07 10:17:31;;;;;;;6.70;3.40;;;;;;100843.13;;;;107223;1274;64853;-31
2022/03/07 10:20:04;;;;;;;5.20;3.10;;;;;;100837.84;;;;107217;1274;65223;-31
2022/03/07 10:22:31;;;;;;;5.60;3.10;;;;;;100837.05;;;;107251;1274;64759;-30
2022/03/07 10:25:01;;;;;;;6.10;3.10;;;;;;100834.88;;;;107247;1274;66513;-34
2022/03/07 10:27:33;;;;;;;6.00;3.50;;;;;;100834.36;;;;107228;1274;64773;-29
2022/03/07 10:30:01;;;;;;;5.10;2.80;;;;;;100837.69;;;;107142;1274;65470;-29
2022/03/07 10:32:28;;;;;;;6.20;3.50;;;;;;100834.59;;;;107215;1274;64901;-31
2022/03/07 10:34:55;;;;;;;5.50;3.20;;;;;;100832.17;;;;107219;1272;64888;-33
2022/03/07 10:37:37;;;;;;;5.60;3.30;;;;;;100833.13;;;;107217;1274;65104;-30
2022/03/07 10:40:18;;;;;;;6.30;4.00;;;;;;100836.23;;;;107225;1274;64710;-29
2022/03/07 10:42:47;;;;;;;6.60;3.80;;;;;;100831.15;;;;107135;1274;64853;-35
2022/03/07 10:45:15;;;;;;;6.10;3.70;;;;;;100815.36;;;;107221;1273;64738;-35
2022/03/07 10:47:43;;;;;;;5.60;3.60;;;;;;100819.65;;;;107149;1274;64742;-35
2022/03/07 10:50:10;;;;;;;8.20;3.80;;;;;;100816.90;;;;107149;1274;65857;-33
2022/03/07 10:52:42;;;;;;;6.50;3.50;;;;;;100815.23;;;;107207;1274;64770;-29
2022/03/07 10:55:12;;;;;;;5.70;3.70;;;;;;100812.26;;;;107209;1273;64824;-33
2022/03/07 10:57:42;;;;;;;7.20;3.60;;;;;;100810.23;;;;107244;1274;64933;-32
2022/03/07 11:00:13;;;;;;;6.40;3.80;;;;;;100803.71;;;;107138;1273;64978;-34
2022/03/07 11:02:43;;;;;;;6.40;3.80;;;;;;100801.27;;;;107185;1273;65261;-35
2022/03/07 11:05:12;;;;;;;6.00;4.00;;;;;;100802.01;;;;107203;1274;65646;-28
2022/03/07 11:07:46;;;;;;;7.10;4.20;;;;;;100798.89;;;;107233;1274;64837;-32
2022/03/07 11:10:15;;;;;;;6.80;3.90;;;;;;100796.73;;;;107235;1274;65215;-33
2022/03/07 11:12:44;;;;;;;7.70;3.80;;;;;;100796.98;;;;107177;1277;64766;-33
2022/03/07 11:15:18;;;;;;;7.30;4.10;;;;;;100798.79;;;;107158;1274;64926;-34
2022/03/07 11:17:47;;;;;;;6.60;4.10;;;;;;100791.88;;;;107183;1274;64726;-33
2022/03/07 11:20:17;;;;;;;6.50;4.00;;;;;;100784.99;;;;107209;1274;64887;-35
2022/03/07 11:22:44;;;;;;;6.70;3.90;;;;;;100781.27;;;;107222;1273;64860;-33
2022/03/07 11:25:16;;;;;;;6.10;3.80;;;;;;100777.81;;;;107188;1273;64779;-32
2022/03/07 11:27:44;;;;;;;6.30;4.00;;;;;;100774.44;;;;107196;1274;64778;-32
2022/03/07 11:30:20;;;;;;;6.00;4.20;;;;;;100770.47;;;;107218;1273;65033;-32
2022/03/07 11:32:52;;;;;;;6.40;4.10;;;;;;100769.02;;;;107118;1274;64750;-32
2022/03/07 11:35:20;;;;;;;6.90;4.30;;;;;;100767.42;;;;107159;1273;64911;-32
2022/03/07 11:37:47;;;;;;;6.80;4.20;;;;;;100769.90;;;;107130;1274;64830;-30
2022/03/07 11:40:23;;;;;;;7.70;4.60;;;;;;100772.45;;;;107202;1274;66159;-30
2022/03/07 11:42:51;;;;;;;6.50;3.90;;;;;;100779.10;;;;107035;1274;64747;-32
2022/03/07 11:45:22;;;;;;;6.20;4.10;;;;;;100772.31;;;;107152;1273;64850;-32
2022/03/07 11:47:50;;;;;;;6.00;3.80;;;;;;100774.48;;;;107217;1274;64914;-32
2022/03/07 11:50:20;;;;;;;6.00;3.80;;;;;;100767.35;;;;107270;1274;64882;-30
2022/03/07 11:52:47;;;;;;;5.50;3.40;;;;;;100764.36;;;;107225;1274;64968;-32
2022/03/07 11:55:19;;;;;;;6.30;4.10;;;;;;100759.63;;;;107197;1274;64717;-32
2022/03/07 11:58:01;;;;;;;6.50;4.00;;;;;;100762.70;;;;107261;1274;64773;-31
2022/03/07 12:00:35;;;;;;;6.80;3.90;;;;;;100761.65;;;;107224;1274;64841;-32
2022/03/07 12:03:18;;;;;;;6.70;3.80;;;;;;100755.24;;;;107231;1274;64773;-33
2022/03/07 12:05:45;;;;;;;6.40;4.10;;;;;;100752.33;;;;107227;1274;66126;-30
2022/03/07 12:08:19;;;;;;;6.10;3.90;;;;;;100754.13;;;;107207;1274;64883;-30
2022/03/07 12:10:53;;;;;;;6.10;4.10;;;;;;100753.11;;;;107146;1273;64769;-30
2022/03/07 12:13:21;;;;;;;6.20;4.10;;;;;;100757.64;;;;107212;1274;64753;-32
2022/03/07 12:15:55;;;;;;;6.70;3.80;;;;;;100754.27;;;;107262;1274;64840;-32
2022/03/07 12:18:22;;;;;;;6.70;3.80;;;;;;100750.99;;;;107238;1274;67322;-30
2022/03/07 12:20:59;;;;;;;6.00;3.70;;;;;;100756.05;;;;107197;1274;64754;-30
2022/03/07 12:23:29;;;;;;;6.50;4.20;;;;;;100757.10;;;;107143;1274;64743;-32
2022/03/07 12:26:00;;;;;;;6.30;4.20;;;;;;100755.09;;;;106953;1274;313671;-38
2022/03/07 12:28:37;;;;;;;7.40;4.10;;;;;;100752.61;;;;107223;1274;63451;-36
2022/03/07 12:31:06;;;;;;;6.10;3.90;;;;;;100749.27;;;;107255;1274;68111;-41
2022/03/07 12:33:34;;;;;;;6.90;3.70;;;;;;100742.95;;;;107237;1274;64890;-37
2022/03/07 12:36:12;;;;;;;6.30;4.20;;;;;;100741.56;;;;107224;1274;64880;-42
2022/03/07 12:38:54;;;;;;;6.40;4.00;;;;;;100743.58;;;;107204;1274;64832;-32
2022/03/07 12:41:31;;;;;;;5.90;3.60;;;;;;100735.60;;;;107163;1273;64877;-32
2022/03/07 12:44:00;;;;;;;6.30;3.90;;;;;;100739.50;;;;107225;1274;65857;-30
2022/03/07 12:46:28;;;;;;;6.40;4.20;;;;;;100739.34;;;;107160;1272;64848;-32
2022/03/07 12:48:57;;;;;;;6.70;4.10;;;;;;100739.09;;;;107221;1274;64823;-31
2022/03/07 12:51:26;;;;;;;6.00;3.80;;;;;;100734.01;;;;107196;1274;64744;-33